Time;durP1;ratioP1;P1;durP2;ratioP2;P2;SDS_P1;SDS_P2;PMS_P1;PMS_P2;Temp;Humidity;BMP_temperature;BMP_pressure;BME280_temperature;BME280_humidity;BME280_pressure;Samples;Min_cycle;Max_cycle;Signal;HPM_P1;HPM_P2
2024/03/16 00:01:50;;;;;;;1.67;0.70;;;11.40;90.10;;;;;;5115503;27;20342;-73
2024/03/16 00:04:16;;;;;;;1.35;0.70;;;11.40;90.10;;;;;;5114536;27;20134;-73
2024/03/16 00:06:41;;;;;;;2.25;0.50;;;11.40;90.10;;;;;;5115619;28;20063;-73
2024/03/16 00:09:08;;;;;;;2.17;0.80;;;11.40;90.10;;;;;;5115733;28;20047;-74
2024/03/16 00:11:34;;;;;;;1.30;0.57;;;11.40;90.10;;;;;;5133596;27;20043;-73
2024/03/16 00:14:00;;;;;;;2.92;0.80;;;11.40;90.10;;;;;;5081097;28;20031;-72
2024/03/16 00:16:27;;;;;;;1.27;0.60;;;11.40;90.10;;;;;;5098388;28;20065;-73
2024/03/16 00:18:53;;;;;;;2.90;0.80;;;11.40;90.10;;;;;;5115204;27;20039;-72
2024/03/16 00:21:19;;;;;;;1.05;0.73;;;11.50;90.10;;;;;;5133433;27;20110;-73
2024/03/16 00:23:45;;;;;;;1.13;0.70;;;11.40;90.10;;;;;;5133344;27;20066;-72
2024/03/16 00:26:11;;;;;;;1.33;0.77;;;11.40;90.10;;;;;;5115048;28;20061;-72
2024/03/16 00:28:37;;;;;;;1.08;0.65;;;11.40;90.10;;;;;;5081212;27;20051;-73
2024/03/16 00:31:03;;;;;;;1.70;0.80;;;11.40;90.10;;;;;;5098433;28;20043;-72
2024/03/16 00:33:29;;;;;;;1.77;0.70;;;11.40;90.10;;;;;;5097600;27;20040;-72
2024/03/16 00:35:54;;;;;;;2.88;1.02;;;11.40;90.10;;;;;;5080664;28;20057;-72
2024/03/16 00:38:21;;;;;;;5.10;1.40;;;11.40;90.10;;;;;;5096876;28;20031;-73
2024/03/16 00:40:47;;;;;;;4.65;1.20;;;11.40;90.10;;;;;;5097847;28;20043;-72
2024/03/16 00:43:17;;;;;;;4.53;1.08;;;11.40;90.10;;;;;;5114703;28;20501;-73
2024/03/16 00:45:44;;;;;;;2.35;0.80;;;11.30;90.10;;;;;;5115383;28;20047;-72
2024/03/16 00:48:15;;;;;;;4.88;1.20;;;11.30;90.20;;;;;;5132816;27;20118;-72
2024/03/16 00:50:41;;;;;;;1.50;0.95;;;11.20;90.20;;;;;;5132944;27;20059;-72
2024/03/16 00:53:09;;;;;;;3.17;1.20;;;11.20;90.20;;;;;;5079600;28;20047;-74
2024/03/16 00:55:35;;;;;;;4.22;1.20;;;11.10;90.30;;;;;;5079514;28;20501;-74
2024/03/16 00:58:01;;;;;;;2.38;0.90;;;11.10;90.40;;;;;;5078739;28;20112;-73
2024/03/16 01:00:28;;;;;;;1.35;0.77;;;11.10;90.50;;;;;;5097830;28;20046;-73
2024/03/16 01:02:54;;;;;;;2.90;1.10;;;11.00;90.50;;;;;;5079561;28;20534;-72
2024/03/16 01:05:26;;;;;;;2.42;1.10;;;11.00;90.50;;;;;;5132669;27;20135;-73
2024/03/16 01:07:52;;;;;;;1.88;0.88;;;11.00;90.60;;;;;;5132526;27;20035;-73
2024/03/16 01:10:18;;;;;;;2.65;1.10;;;11.00;90.60;;;;;;5114566;28;20047;-73
2024/03/16 01:12:43;;;;;;;3.03;1.15;;;10.90;90.60;;;;;;5114572;28;20070;-73
2024/03/16 01:15:09;;;;;;;2.67;1.13;;;10.90;90.60;;;;;;5133187;28;20039;-73
2024/03/16 01:17:35;;;;;;;1.70;1.00;;;10.90;90.70;;;;;;5132776;27;20088;-73
2024/03/16 01:20:01;;;;;;;1.98;1.10;;;10.90;90.70;;;;;;5132187;28;20039;-73
2024/03/16 01:22:27;;;;;;;4.50;1.70;;;10.90;90.70;;;;;;5132503;27;20035;-73
2024/03/16 01:24:52;;;;;;;2.80;1.30;;;10.90;90.70;;;;;;5113972;28;20130;-73
2024/03/16 01:27:18;;;;;;;3.13;1.33;;;10.90;90.70;;;;;;5099814;28;20146;-73
2024/03/16 01:29:44;;;;;;;4.22;1.40;;;10.90;90.80;;;;;;5136054;27;20573;-73
2024/03/16 01:32:10;;;;;;;3.70;1.35;;;10.90;90.80;;;;;;5117443;28;20074;-73
2024/03/16 01:34:36;;;;;;;4.07;1.50;;;10.80;90.80;;;;;;5117400;28;20063;-73
2024/03/16 01:37:02;;;;;;;3.88;1.52;;;10.80;90.80;;;;;;5117416;28;20035;-73
2024/03/16 01:39:29;;;;;;;3.45;1.42;;;10.80;90.80;;;;;;5135635;27;20042;-73
2024/03/16 01:41:55;;;;;;;1.95;1.27;;;10.80;90.80;;;;;;5135763;27;20039;-73
2024/03/16 01:44:21;;;;;;;2.17;1.05;;;10.80;90.80;;;;;;5135616;27;20050;-73
2024/03/16 01:46:47;;;;;;;2.58;1.42;;;10.70;90.90;;;;;;5100262;28;20031;-72
2024/03/16 01:49:13;;;;;;;3.13;1.20;;;10.80;90.90;;;;;;5135374;27;20038;-73
2024/03/16 01:51:42;;;;;;;2.67;1.30;;;10.80;91.00;;;;;;5135382;27;20039;-72
2024/03/16 01:54:08;;;;;;;1.85;1.15;;;10.70;91.00;;;;;;5118304;27;20046;-73
2024/03/16 01:56:34;;;;;;;4.22;1.20;;;10.70;91.00;;;;;;5083386;28;20039;-73
2024/03/16 01:59:00;;;;;;;2.97;1.20;;;10.60;91.00;;;;;;5135475;27;20039;-73
2024/03/16 02:01:26;;;;;;;3.47;1.33;;;10.60;91.00;;;;;;5135556;27;20043;-73
2024/03/16 02:03:57;;;;;;;2.63;1.20;;;10.70;91.10;;;;;;5135460;27;20452;-73
2024/03/16 02:06:24;;;;;;;5.07;1.50;;;10.70;91.10;;;;;;5076107;28;20052;-73
2024/03/16 02:08:53;;;;;;;2.58;1.20;;;10.70;91.10;;;;;;5056528;28;20055;-73
2024/03/16 02:11:19;;;;;;;2.95;1.25;;;10.60;91.10;;;;;;5092571;28;20123;-73
2024/03/16 02:13:45;;;;;;;1.70;1.15;;;10.70;91.20;;;;;;5075088;28;20439;-73
2024/03/16 02:16:11;;;;;;;3.35;1.17;;;10.70;91.10;;;;;;5092108;28;20092;-73
2024/03/16 02:18:36;;;;;;;3.80;1.60;;;10.60;91.10;;;;;;5091819;28;20089;-73
2024/03/16 02:21:03;;;;;;;3.55;1.40;;;10.70;91.20;;;;;;5090030;28;20067;-73
2024/03/16 02:23:31;;;;;;;3.42;1.50;;;10.70;91.20;;;;;;5092440;28;20063;-73
2024/03/16 02:25:58;;;;;;;4.50;1.30;;;10.70;91.20;;;;;;5075497;28;20051;-73
2024/03/16 02:28:24;;;;;;;4.60;1.70;;;10.70;91.20;;;;;;5074673;28;20093;-73
2024/03/16 02:30:50;;;;;;;4.40;1.55;;;10.70;91.20;;;;;;5091881;28;20064;-73
2024/03/16 02:33:15;;;;;;;5.85;2.10;;;10.60;91.20;;;;;;5074868;28;20052;-73
2024/03/16 02:35:42;;;;;;;3.75;1.38;;;10.70;91.30;;;;;;5087749;28;20063;-73
2024/03/16 02:38:09;;;;;;;3.50;1.60;;;10.60;91.30;;;;;;5070706;28;20126;-72
2024/03/16 02:40:36;;;;;;;2.30;1.30;;;10.60;91.30;;;;;;5116544;28;20393;-72
2024/03/16 02:43:04;;;;;;;2.83;1.45;;;10.70;91.30;;;;;;5116407;27;20035;-73
2024/03/16 02:45:31;;;;;;;3.42;1.55;;;10.60;91.30;;;;;;5135208;27;20118;-73
2024/03/16 02:47:58;;;;;;;3.20;1.45;;;10.60;91.30;;;;;;5116324;28;20050;-73
2024/03/16 02:50:23;;;;;;;3.83;1.50;;;10.60;91.30;;;;;;5116267;28;20434;-72
2024/03/16 02:52:49;;;;;;;3.08;1.50;;;10.60;91.30;;;;;;5116165;28;20066;-72
2024/03/16 02:55:15;;;;;;;4.93;2.50;;;10.60;91.40;;;;;;5134966;27;20394;-73
2024/03/16 02:57:40;;;;;;;3.97;2.33;;;10.70;91.40;;;;;;5134324;28;20035;-73
2024/03/16 03:00:10;;;;;;;3.60;1.92;;;10.60;91.40;;;;;;5115763;27;20039;-73
2024/03/16 03:02:37;;;;;;;4.55;1.70;;;10.70;91.50;;;;;;5134787;27;20031;-73
2024/03/16 03:05:04;;;;;;;6.65;1.80;;;10.50;91.40;;;;;;5098915;28;20081;-72
2024/03/16 03:07:30;;;;;;;4.13;1.50;;;10.50;91.50;;;;;;5132481;28;20039;-73
2024/03/16 03:09:56;;;;;;;5.28;1.83;;;10.40;91.80;;;;;;5134357;28;20505;-72
2024/03/16 03:12:24;;;;;;;3.70;1.48;;;10.40;91.50;;;;;;5098725;28;20096;-74
2024/03/16 03:14:50;;;;;;;4.57;1.55;;;10.40;91.50;;;;;;5099620;27;20054;-74
2024/03/16 03:17:16;;;;;;;3.03;1.13;;;10.30;91.50;;;;;;5099154;27;20039;-72
2024/03/16 03:19:42;;;;;;;3.60;1.20;;;10.30;91.60;;;;;;5134356;27;20039;-73
2024/03/16 03:22:08;;;;;;;1.77;0.90;;;10.20;91.50;;;;;;5133743;27;20051;-73
2024/03/16 03:24:34;;;;;;;1.80;0.98;;;10.10;91.50;;;;;;5115996;28;20039;-72
2024/03/16 03:27:00;;;;;;;1.02;0.80;;;10.00;91.60;;;;;;5115650;28;20494;-73
2024/03/16 03:29:26;;;;;;;2.05;0.80;;;10.00;91.60;;;;;;5133979;27;20047;-73
2024/03/16 03:31:52;;;;;;;1.77;0.80;;;10.00;91.70;;;;;;5134322;27;20482;-73
2024/03/16 03:34:18;;;;;;;1.80;0.80;;;10.00;91.70;;;;;;5134293;27;20490;-73
2024/03/16 03:36:44;;;;;;;1.48;0.77;;;10.00;91.70;;;;;;5133787;27;20092;-72
2024/03/16 03:39:14;;;;;;;2.60;0.80;;;9.90;91.70;;;;;;5115448;28;20045;-73
2024/03/16 03:41:40;;;;;;;1.38;0.60;;;9.90;91.70;;;;;;5133720;28;20038;-73
2024/03/16 03:44:20;;;;;;;2.30;0.47;;;9.80;91.70;;;;;;5133910;27;20538;-73
2024/03/16 03:46:50;;;;;;;2.55;0.75;;;9.80;91.70;;;;;;5133770;27;20046;-73
2024/03/16 03:49:26;;;;;;;0.73;0.60;;;9.80;91.60;;;;;;5133204;27;20398;-72
2024/03/16 03:51:53;;;;;;;0.50;0.50;;;9.70;91.60;;;;;;5133573;27;20039;-73
2024/03/16 03:54:19;;;;;;;1.50;0.60;;;9.70;91.70;;;;;;5133330;27;20046;-73
2024/03/16 03:56:45;;;;;;;1.27;0.50;;;9.70;91.70;;;;;;5133752;27;20039;-73
2024/03/16 03:59:11;;;;;;;1.33;0.60;;;9.60;91.70;;;;;;5134050;27;20479;-73
2024/03/16 04:01:37;;;;;;;1.33;0.50;;;9.70;91.70;;;;;;5115056;28;20039;-73
2024/03/16 04:04:04;;;;;;;0.47;0.45;;;9.60;91.70;;;;;;5133331;27;20046;-73
2024/03/16 04:06:30;;;;;;;1.25;0.70;;;9.60;91.70;;;;;;5115252;27;20516;-74
2024/03/16 04:08:57;;;;;;;1.00;0.60;;;9.70;91.80;;;;;;5133328;27;20043;-73
2024/03/16 04:11:22;;;;;;;0.80;0.70;;;9.60;91.80;;;;;;5133562;27;20093;-72
2024/03/16 04:13:48;;;;;;;1.38;0.70;;;9.50;91.70;;;;;;5097929;27;20506;-73
2024/03/16 04:16:14;;;;;;;1.63;1.00;;;9.50;91.80;;;;;;5097575;28;20126;-73
2024/03/16 04:18:41;;;;;;;0.65;0.65;;;9.50;91.80;;;;;;5097793;28;20175;-72
2024/03/16 04:21:07;;;;;;;1.60;1.05;;;9.50;91.80;;;;;;5112735;28;20035;-73
2024/03/16 04:23:33;;;;;;;0.88;0.73;;;9.40;91.70;;;;;;5114753;27;20039;-73
2024/03/16 04:25:59;;;;;;;1.05;0.70;;;9.40;91.70;;;;;;5115165;27;20405;-73
2024/03/16 04:28:25;;;;;;;1.27;0.73;;;9.40;91.80;;;;;;5132984;28;20042;-73
2024/03/16 04:30:51;;;;;;;1.05;0.73;;;9.20;91.80;;;;;;5114653;28;20138;-73
2024/03/16 04:33:17;;;;;;;0.85;0.60;;;9.30;91.90;;;;;;5114632;28;20444;-73
2024/03/16 04:35:45;;;;;;;0.60;0.60;;;9.20;91.90;;;;;;5114475;28;20043;-73
2024/03/16 04:38:11;;;;;;;0.70;0.50;;;9.20;91.90;;;;;;5097887;28;20092;-72
2024/03/16 04:40:36;;;;;;;0.43;0.40;;;9.10;91.80;;;;;;5133367;27;20425;-73
2024/03/16 04:43:02;;;;;;;0.50;0.40;;;9.10;91.90;;;;;;5114731;28;20518;-73
2024/03/16 04:45:28;;;;;;;0.55;0.30;;;9.00;91.90;;;;;;5133206;27;20047;-72
2024/03/16 04:47:54;;;;;;;0.95;0.52;;;9.00;91.90;;;;;;5132718;27;20490;-73
2024/03/16 04:50:19;;;;;;;0.70;0.40;;;9.00;91.90;;;;;;5132692;27;20070;-72
2024/03/16 04:52:45;;;;;;;0.38;0.35;;;9.00;91.90;;;;;;5114239;28;20039;-73
2024/03/16 04:55:11;;;;;;;0.35;0.35;;;9.10;92.00;;;;;;5114476;28;20039;-73
2024/03/16 04:57:36;;;;;;;0.43;0.30;;;9.00;92.00;;;;;;5114601;28;20413;-73
2024/03/16 05:00:02;;;;;;;1.08;0.57;;;8.90;91.90;;;;;;5132668;27;20066;-73
2024/03/16 05:02:30;;;;;;;0.75;0.30;;;8.90;91.90;;;;;;5135857;27;20043;-73
2024/03/16 05:04:56;;;;;;;0.60;0.52;;;8.90;91.90;;;;;;5118602;28;20508;-73
2024/03/16 05:07:22;;;;;;;0.40;0.32;;;8.90;92.00;;;;;;5136643;27;20043;-73
2024/03/16 05:09:47;;;;;;;2.90;0.40;;;8.90;92.00;;;;;;5136255;27;20043;-74
2024/03/16 05:12:13;;;;;;;1.27;0.30;;;8.80;91.90;;;;;;5136629;27;20047;-73
2024/03/16 05:14:39;;;;;;;0.85;0.32;;;8.80;92.00;;;;;;5136711;27;20035;-73
2024/03/16 05:17:04;;;;;;;0.55;0.40;;;8.80;92.00;;;;;;5117942;28;20038;-73
2024/03/16 05:19:30;;;;;;;1.38;0.30;;;8.80;92.00;;;;;;5118129;28;20058;-73
2024/03/16 05:21:56;;;;;;;0.35;0.30;;;8.80;92.00;;;;;;5136154;27;20426;-72
2024/03/16 05:24:21;;;;;;;0.75;0.35;;;8.90;92.00;;;;;;5118005;27;20046;-72
2024/03/16 05:26:48;;;;;;;0.20;0.20;;;8.80;91.90;;;;;;5083724;28;20028;-72
2024/03/16 05:29:14;;;;;;;0.40;0.30;;;8.80;91.90;;;;;;5136497;27;20123;-72
2024/03/16 05:31:58;;;;;;;0.32;0.30;;;8.80;91.90;;;;;;5135838;27;20069;-73
2024/03/16 05:34:24;;;;;;;0.50;0.40;;;8.80;91.90;;;;;;5068045;28;20110;-73
2024/03/16 05:36:50;;;;;;;0.68;0.43;;;8.80;91.90;;;;;;5136084;28;20526;-73
2024/03/16 05:39:16;;;;;;;0.63;0.30;;;8.80;91.90;;;;;;5117651;28;20043;-73
2024/03/16 05:41:41;;;;;;;0.43;0.30;;;8.80;91.90;;;;;;5117380;27;20458;-73
2024/03/16 05:44:07;;;;;;;1.10;0.22;;;8.80;91.90;;;;;;5117911;28;20425;-72
2024/03/16 05:46:33;;;;;;;0.47;0.30;;;8.80;91.90;;;;;;5135505;27;20035;-72
2024/03/16 05:48:58;;;;;;;0.65;0.30;;;8.70;91.90;;;;;;5117323;28;20037;-73
2024/03/16 05:51:27;;;;;;;1.02;0.28;;;8.80;91.90;;;;;;5135696;27;20069;-73
2024/03/16 05:53:54;;;;;;;0.32;0.20;;;8.70;91.90;;;;;;5135483;27;20394;-73
2024/03/16 05:56:21;;;;;;;0.30;0.30;;;8.70;91.90;;;;;;5100439;28;20402;-72
2024/03/16 05:58:48;;;;;;;0.90;0.32;;;8.70;91.90;;;;;;5117580;28;20034;-73
2024/03/16 06:01:13;;;;;;;1.73;0.45;;;8.70;91.80;;;;;;5117233;27;20035;-73
2024/03/16 06:03:39;;;;;;;0.45;0.40;;;8.70;91.80;;;;;;5135507;27;20047;-73
2024/03/16 06:06:05;;;;;;;1.83;0.40;;;8.70;91.90;;;;;;5117347;28;20035;-73
2024/03/16 06:08:32;;;;;;;2.90;0.40;;;8.70;91.80;;;;;;5100401;28;20047;-73
2024/03/16 06:10:58;;;;;;;0.20;0.20;;;8.60;91.80;;;;;;5135296;27;20055;-73
2024/03/16 06:13:24;;;;;;;0.30;0.30;;;8.70;91.80;;;;;;5134839;27;20134;-74
2024/03/16 06:15:50;;;;;;;1.40;0.57;;;8.60;91.80;;;;;;5135180;27;20038;-73
2024/03/16 06:18:17;;;;;;;0.65;0.40;;;8.60;91.90;;;;;;5117000;28;20040;-72
2024/03/16 06:20:43;;;;;;;0.57;0.30;;;8.60;91.80;;;;;;5099965;28;22028;-73
2024/03/16 06:23:09;;;;;;;0.30;0.30;;;8.50;91.80;;;;;;5135305;27;20122;-72
2024/03/16 06:28:16;;;;;;;0.20;0.20;;;8.30;91.80;;;;;;5134997;27;20096;-73
2024/03/16 06:30:48;;;;;;;0.20;0.20;;;8.30;91.90;;;;;;5100188;27;20058;-73
2024/03/16 06:33:26;;;;;;;0.65;0.22;;;8.20;91.90;;;;;;5117420;28;20063;-72
2024/03/16 06:35:53;;;;;;;0.32;0.20;;;8.20;91.90;;;;;;5135114;28;20040;-73
2024/03/16 06:38:19;;;;;;;0.20;0.20;;;8.20;91.90;;;;;;5117145;28;20125;-73
2024/03/16 06:40:45;;;;;;;0.20;0.20;;;8.10;91.90;;;;;;5134871;27;20085;-73
2024/03/16 06:43:11;;;;;;;1.35;0.30;;;8.20;91.90;;;;;;5135010;27;20054;-73
2024/03/16 06:45:36;;;;;;;0.17;0.17;;;8.20;91.90;;;;;;5134972;27;20038;-73
2024/03/16 06:48:02;;;;;;;0.20;0.20;;;8.20;91.90;;;;;;5135111;27;20044;-73
2024/03/16 06:50:28;;;;;;;0.20;0.20;;;8.20;91.90;;;;;;5134485;27;20398;-73
2024/03/16 06:52:53;;;;;;;0.10;0.10;;;8.20;91.80;;;;;;5134866;27;20550;-73
2024/03/16 06:55:19;;;;;;;0.17;0.10;;;8.30;91.80;;;;;;5116887;28;20043;-73
2024/03/16 06:57:45;;;;;;;1.15;0.20;;;8.20;91.70;;;;;;5134536;27;20046;-73
2024/03/16 07:00:12;;;;;;;0.20;0.20;;;8.20;91.70;;;;;;5134466;27;20070;-73
2024/03/16 07:02:37;;;;;;;0.10;0.10;;;8.20;91.70;;;;;;5135053;27;20095;-73
2024/03/16 07:05:03;;;;;;;0.10;0.10;;;8.20;91.60;;;;;;5134937;27;20150;-73
2024/03/16 07:07:30;;;;;;;0.68;0.25;;;8.10;91.60;;;;;;5116804;28;20056;-74
2024/03/16 07:09:55;;;;;;;0.85;0.20;;;8.10;91.70;;;;;;5134460;27;20047;-73
2024/03/16 07:12:21;;;;;;;0.38;0.38;;;8.10;91.60;;;;;;5134629;27;20531;-71
2024/03/16 07:14:47;;;;;;;1.13;0.45;;;8.20;91.70;;;;;;5116157;27;20088;-73
2024/03/16 07:17:13;;;;;;;1.55;0.40;;;8.20;91.60;;;;;;5134392;27;20499;-73
2024/03/16 07:19:38;;;;;;;1.15;0.40;;;8.20;91.60;;;;;;5115846;27;20031;-73
2024/03/16 07:22:04;;;;;;;0.57;0.40;;;8.20;91.60;;;;;;5134230;27;20477;-74
2024/03/16 07:24:30;;;;;;;1.30;0.47;;;8.20;91.50;;;;;;5098019;28;20031;-73
2024/03/16 07:26:56;;;;;;;0.80;0.40;;;8.30;91.50;;;;;;5134682;27;20118;-73
2024/03/16 07:29:21;;;;;;;0.25;0.25;;;8.30;91.50;;;;;;5134476;27;20478;-74
2024/03/16 07:31:49;;;;;;;0.90;0.30;;;8.30;91.40;;;;;;5134521;27;20043;-74
2024/03/16 07:34:15;;;;;;;1.13;0.45;;;8.40;91.40;;;;;;5099280;28;20031;-73
2024/03/16 07:36:41;;;;;;;0.35;0.25;;;8.40;91.40;;;;;;5133909;27;20432;-73
2024/03/16 07:39:08;;;;;;;0.73;0.20;;;8.50;91.30;;;;;;5133749;27;20031;-73
2024/03/16 07:41:35;;;;;;;0.73;0.30;;;8.50;91.30;;;;;;5133765;27;20043;-73
2024/03/16 07:44:01;;;;;;;0.60;0.40;;;8.50;91.50;;;;;;5098880;28;20035;-74
2024/03/16 07:46:27;;;;;;;1.02;0.40;;;8.60;91.30;;;;;;5115468;27;20046;-74
2024/03/16 07:48:52;;;;;;;1.00;0.40;;;8.60;91.20;;;;;;5134380;27;20493;-74
2024/03/16 07:51:19;;;;;;;1.48;0.20;;;8.60;91.20;;;;;;5134131;27;20047;-74
2024/03/16 07:53:45;;;;;;;0.35;0.20;;;8.60;91.20;;;;;;5115549;28;20086;-74
2024/03/16 07:56:11;;;;;;;0.25;0.20;;;8.60;91.20;;;;;;5081477;28;20035;-74
2024/03/16 07:58:37;;;;;;;1.17;0.40;;;8.70;91.10;;;;;;5133767;27;20066;-73
2024/03/16 08:01:04;;;;;;;1.23;0.60;;;8.70;91.10;;;;;;5115396;28;20088;-73
2024/03/16 08:03:31;;;;;;;1.13;0.35;;;8.70;91.00;;;;;;5115506;27;20478;-73
2024/03/16 08:06:03;;;;;;;0.28;0.28;;;8.70;91.00;;;;;;5115439;27;20039;-74
2024/03/16 08:08:29;;;;;;;2.05;0.40;;;8.70;91.00;;;;;;5115984;28;20035;-73
2024/03/16 08:10:55;;;;;;;1.35;0.30;;;8.70;91.00;;;;;;5133503;27;20047;-73
2024/03/16 08:13:21;;;;;;;1.02;0.43;;;8.70;90.90;;;;;;5115012;28;20422;-74
2024/03/16 08:15:46;;;;;;;0.60;0.43;;;8.60;90.90;;;;;;5133389;27;20035;-73
2024/03/16 08:18:12;;;;;;;0.50;0.38;;;8.60;91.00;;;;;;5133340;27;20038;-73
2024/03/16 08:20:38;;;;;;;0.80;0.40;;;8.60;90.90;;;;;;5115025;28;20043;-73
2024/03/16 08:23:04;;;;;;;0.38;0.28;;;8.60;90.90;;;;;;5114935;28;20088;-73
2024/03/16 08:25:32;;;;;;;1.20;0.52;;;8.60;90.90;;;;;;5097991;27;20188;-74
2024/03/16 08:27:58;;;;;;;1.48;0.40;;;8.70;90.80;;;;;;5115176;28;20054;-73
2024/03/16 08:30:25;;;;;;;0.35;0.20;;;8.80;90.80;;;;;;5132923;27;20039;-73
2024/03/16 08:32:52;;;;;;;0.85;0.38;;;8.80;90.80;;;;;;5133109;27;20041;-74
2024/03/16 08:35:18;;;;;;;1.45;0.35;;;9.00;90.70;;;;;;5112925;28;20121;-74
2024/03/16 08:37:44;;;;;;;1.83;0.45;;;9.00;90.60;;;;;;5133501;27;20119;-74
2024/03/16 08:40:13;;;;;;;0.38;0.28;;;9.00;90.50;;;;;;5097610;27;20045;-74
2024/03/16 08:42:40;;;;;;;1.02;0.25;;;9.10;90.50;;;;;;5132856;27;20039;-74
2024/03/16 08:45:07;;;;;;;0.73;0.30;;;9.20;90.50;;;;;;5133397;27;20113;-73
2024/03/16 08:47:34;;;;;;;1.25;0.30;;;9.20;90.50;;;;;;5114459;28;20044;-74
2024/03/16 08:49:59;;;;;;;1.98;0.52;;;9.50;90.60;;;;;;5115180;28;20043;-74
2024/03/16 08:52:26;;;;;;;1.08;0.40;;;9.60;90.30;;;;;;5132798;27;20062;-75
2024/03/16 08:54:55;;;;;;;1.95;0.50;;;9.80;90.10;;;;;;5097939;28;20039;-74
2024/03/16 08:57:22;;;;;;;1.30;0.40;;;9.80;89.60;;;;;;5131169;28;20062;-74
2024/03/16 08:59:48;;;;;;;0.80;0.40;;;9.80;89.60;;;;;;5097666;28;20035;-74
2024/03/16 09:02:13;;;;;;;0.75;0.47;;;9.90;89.80;;;;;;5132864;28;20565;-72
2024/03/16 09:04:39;;;;;;;2.00;0.43;;;10.00;89.70;;;;;;5098139;28;20371;-72
2024/03/16 09:07:05;;;;;;;1.10;0.40;;;9.90;89.60;;;;;;5080694;28;20091;-72
2024/03/16 09:09:31;;;;;;;2.15;0.60;;;9.90;89.60;;;;;;5097416;28;20114;-74
2024/03/16 09:11:56;;;;;;;1.05;0.40;;;9.80;89.60;;;;;;5080401;28;20039;-72
2024/03/16 09:14:22;;;;;;;1.33;0.40;;;9.60;89.70;;;;;;5097004;28;20039;-73
2024/03/16 09:16:48;;;;;;;2.90;0.60;;;9.50;90.00;;;;;;5097462;27;20490;-72
2024/03/16 09:19:14;;;;;;;3.20;0.45;;;9.40;90.00;;;;;;5114498;28;20039;-73
2024/03/16 09:21:40;;;;;;;2.20;0.40;;;9.40;90.10;;;;;;5114349;27;20037;-72
2024/03/16 09:24:06;;;;;;;0.98;0.50;;;9.40;90.10;;;;;;5097275;28;20042;-73
2024/03/16 09:26:32;;;;;;;0.90;0.40;;;9.50;90.50;;;;;;5132739;27;20179;-74
2024/03/16 09:28:57;;;;;;;0.60;0.40;;;9.60;90.10;;;;;;5114118;27;20043;-73
2024/03/16 09:31:24;;;;;;;0.50;0.30;;;9.70;89.90;;;;;;5132421;27;20039;-73
2024/03/16 09:33:51;;;;;;;0.20;0.20;;;9.80;90.10;;;;;;5097168;28;20047;-73
2024/03/16 09:36:16;;;;;;;0.57;0.40;;;9.90;89.50;;;;;;5114224;28;20375;-73
2024/03/16 09:38:42;;;;;;;1.63;0.30;;;9.90;89.40;;;;;;5080071;28;20126;-73
2024/03/16 09:41:18;;;;;;;0.43;0.30;;;10.00;89.30;;;;;;5079968;28;20066;-72
2024/03/16 09:43:45;;;;;;;0.82;0.32;;;10.00;89.10;;;;;;5096299;27;20090;-73
2024/03/16 09:46:11;;;;;;;1.75;0.40;;;10.00;89.00;;;;;;5113804;27;20035;-73
2024/03/16 09:48:38;;;;;;;0.55;0.40;;;10.00;89.10;;;;;;5117342;28;20118;-73
2024/03/16 09:51:04;;;;;;;1.15;0.32;;;10.00;89.20;;;;;;5100245;27;20035;-72
2024/03/16 09:53:32;;;;;;;1.25;0.28;;;10.00;89.20;;;;;;5100066;28;20035;-73
2024/03/16 09:56:00;;;;;;;0.73;0.35;;;10.10;89.10;;;;;;5100145;28;20163;-72
2024/03/16 09:58:28;;;;;;;1.45;0.38;;;10.10;88.80;;;;;;5083674;28;20129;-72
2024/03/16 10:00:54;;;;;;;0.93;0.32;;;10.10;88.90;;;;;;5117782;28;20035;-72
2024/03/16 10:03:22;;;;;;;0.22;0.20;;;10.20;88.80;;;;;;5100265;27;20039;-72
2024/03/16 10:05:48;;;;;;;0.47;0.40;;;10.10;88.60;;;;;;5100932;28;20035;-73
2024/03/16 10:08:17;;;;;;;1.88;0.45;;;10.20;88.80;;;;;;5135720;27;20039;-73
2024/03/16 10:10:44;;;;;;;1.65;0.60;;;10.20;88.60;;;;;;5117720;28;20085;-73
2024/03/16 10:13:11;;;;;;;1.02;0.40;;;10.10;88.50;;;;;;5099849;28;20050;-73
2024/03/16 10:15:46;;;;;;;1.33;0.38;;;10.10;88.50;;;;;;5100134;27;20066;-75
2024/03/16 10:18:14;;;;;;;1.05;0.50;;;10.20;88.50;;;;;;5100075;27;20043;-72
2024/03/16 10:20:42;;;;;;;1.33;0.30;;;10.10;88.30;;;;;;5099934;28;20420;-72
2024/03/16 10:23:15;;;;;;;2.17;0.60;;;10.10;88.20;;;;;;5100083;28;20074;-73
2024/03/16 10:25:46;;;;;;;0.70;0.28;;;10.10;88.20;;;;;;5117471;28;20035;-72
2024/03/16 10:28:15;;;;;;;3.33;0.47;;;10.10;88.10;;;;;;5083169;28;20046;-72
2024/03/16 10:30:49;;;;;;;1.38;0.52;;;10.10;88.10;;;;;;5116921;27;20065;-72
2024/03/16 10:33:18;;;;;;;0.63;0.40;;;10.10;87.90;;;;;;5115214;28;20035;-72
2024/03/16 10:35:45;;;;;;;0.22;0.22;;;10.10;87.70;;;;;;5083388;28;20035;-72
2024/03/16 10:38:13;;;;;;;0.50;0.40;;;10.20;87.70;;;;;;5116796;28;20344;-72
2024/03/16 10:40:40;;;;;;;0.45;0.30;;;10.20;87.50;;;;;;5116575;28;20103;-71
2024/03/16 10:43:13;;;;;;;0.30;0.30;;;10.30;87.40;;;;;;5099837;27;20043;-72
2024/03/16 10:45:48;;;;;;;1.15;0.20;;;10.40;87.20;;;;;;5083357;27;20080;-71
2024/03/16 10:48:15;;;;;;;0.20;0.20;;;10.40;86.90;;;;;;5101921;27;20458;-73
2024/03/16 10:50:48;;;;;;;1.20;0.38;;;10.40;86.70;;;;;;5082594;28;20074;-72
2024/03/16 10:53:16;;;;;;;0.50;0.40;;;10.40;86.70;;;;;;5084272;28;20043;-72
2024/03/16 10:55:43;;;;;;;2.40;0.47;;;10.50;86.70;;;;;;5116883;28;20042;-72
2024/03/16 10:58:23;;;;;;;1.50;0.55;;;10.40;86.40;;;;;;5081900;28;20042;-72
2024/03/16 11:00:50;;;;;;;0.47;0.30;;;10.40;86.50;;;;;;5133098;28;20109;-72
2024/03/16 11:06:14;;;;;;;0.77;0.30;;;10.40;86.40;;;;;;5118603;28;20047;-72
2024/03/16 11:08:41;;;;;;;1.95;0.43;;;10.40;86.30;;;;;;5082532;28;20054;-73
2024/03/16 11:11:15;;;;;;;2.72;0.45;;;10.60;86.10;;;;;;5116222;28;20054;-72
2024/03/16 11:14:11;;;;;;;0.40;0.40;;;10.60;85.80;;;;;;5116638;28;20039;-72
2024/03/16 11:16:46;;;;;;;0.75;0.40;;;10.60;85.60;;;;;;5116104;28;20031;-72
2024/03/16 11:19:21;;;;;;;0.30;0.30;;;10.60;85.40;;;;;;5133978;28;20042;-72
2024/03/16 11:21:48;;;;;;;1.08;0.45;;;10.70;85.40;;;;;;5116178;28;20036;-72
2024/03/16 11:24:17;;;;;;;0.20;0.20;;;10.70;85.50;;;;;;5115902;28;20054;-72
2024/03/16 11:26:44;;;;;;;0.47;0.20;;;10.80;85.30;;;;;;5099111;27;20035;-73
2024/03/16 11:29:14;;;;;;;1.25;0.30;;;10.80;85.20;;;;;;5115907;27;20088;-74
2024/03/16 11:31:46;;;;;;;0.65;0.40;;;10.80;85.00;;;;;;5133838;27;20062;-73
2024/03/16 11:34:13;;;;;;;0.35;0.35;;;10.70;84.80;;;;;;5116861;28;20047;-73
2024/03/16 11:36:50;;;;;;;1.08;0.40;;;10.80;84.90;;;;;;5115612;28;20035;-73
2024/03/16 11:39:24;;;;;;;2.03;0.50;;;10.80;84.80;;;;;;5133843;28;20039;-74
2024/03/16 11:41:55;;;;;;;0.52;0.40;;;10.80;84.70;;;;;;5134083;27;20051;-73
2024/03/16 11:44:22;;;;;;;1.10;0.32;;;10.80;84.70;;;;;;5082291;27;20398;-73
2024/03/16 11:46:49;;;;;;;1.48;0.40;;;10.80;84.60;;;;;;5116506;28;20031;-73
2024/03/16 11:49:17;;;;;;;1.55;0.40;;;10.80;84.80;;;;;;5133976;27;20037;-73
2024/03/16 11:51:48;;;;;;;0.85;0.40;;;10.80;84.80;;;;;;5115956;27;20534;-73
2024/03/16 11:54:14;;;;;;;0.20;0.20;;;10.90;84.60;;;;;;5098351;28;20058;-73
2024/03/16 11:56:41;;;;;;;0.30;0.22;;;10.90;84.40;;;;;;5133756;27;20046;-73
2024/03/16 11:59:13;;;;;;;1.70;0.50;;;11.00;84.40;;;;;;5133603;27;20039;-73
2024/03/16 12:01:41;;;;;;;2.78;0.52;;;10.90;84.10;;;;;;5115373;28;20072;-73
2024/03/16 12:04:09;;;;;;;0.85;0.50;;;11.00;84.20;;;;;;5133663;27;20043;-74
2024/03/16 12:06:36;;;;;;;0.35;0.30;;;11.00;83.90;;;;;;5115107;28;20510;-74
2024/03/16 12:09:03;;;;;;;2.08;0.70;;;11.00;83.60;;;;;;5115575;28;20035;-74
2024/03/16 12:11:29;;;;;;;1.25;0.57;;;11.00;83.20;;;;;;5133260;27;20046;-73
2024/03/16 12:14:11;;;;;;;1.90;0.43;;;11.00;83.50;;;;;;5115026;28;20145;-73
2024/03/16 12:16:38;;;;;;;3.10;0.43;;;11.10;83.20;;;;;;5133278;28;20039;-73
2024/03/16 12:19:08;;;;;;;1.40;0.40;;;11.30;83.00;;;;;;5133232;28;20031;-74
2024/03/16 12:21:42;;;;;;;1.45;0.40;;;11.50;82.60;;;;;;5114895;28;20122;-73
2024/03/16 12:24:21;;;;;;;2.40;0.30;;;11.70;82.00;;;;;;5133354;27;20083;-74
2024/03/16 12:26:49;;;;;;;0.63;0.30;;;11.80;81.40;;;;;;5114838;28;20035;-73
2024/03/16 12:29:17;;;;;;;0.60;0.32;;;11.90;81.00;;;;;;5097819;28;20047;-73
2024/03/16 12:31:44;;;;;;;0.73;0.40;;;11.90;80.90;;;;;;5113810;28;20027;-74
2024/03/16 12:34:12;;;;;;;0.77;0.22;;;11.80;80.80;;;;;;5114792;28;20047;-74
2024/03/16 12:36:38;;;;;;;0.40;0.22;;;11.70;80.60;;;;;;5097887;27;20035;-73
2024/03/16 12:39:07;;;;;;;0.40;0.35;;;11.70;81.20;;;;;;5133417;28;20031;-74
2024/03/16 12:41:36;;;;;;;1.23;0.40;;;11.70;81.40;;;;;;5098074;28;20430;-74
2024/03/16 12:44:03;;;;;;;0.63;0.40;;;11.90;81.30;;;;;;5133093;27;20042;-73
2024/03/16 12:46:29;;;;;;;0.22;0.20;;;12.00;80.70;;;;;;5133263;27;20061;-73
2024/03/16 12:48:54;;;;;;;0.85;0.32;;;11.90;80.60;;;;;;5114705;28;20047;-73
2024/03/16 12:51:20;;;;;;;1.17;0.40;;;11.80;80.80;;;;;;5132650;27;20547;-73
2024/03/16 12:53:46;;;;;;;0.63;0.35;;;11.80;81.50;;;;;;5080458;28;20078;-73
2024/03/16 12:56:12;;;;;;;0.65;0.43;;;11.70;81.00;;;;;;5133086;27;20042;-73